False Pass, AK

11:12 AM AKST on December 28, 2014 (GMT -0900)
False Pass | Change Station
CLOSE
Current Station
Airport
Location: False Pass,
Elevation: 20 ft
Nearby Weather Stations

Elev 20 ft 54.85 °N, 163.41 °W | Updated 11 minutes ago

Overcast
Overcast
39 °F
Feels Like 34 °F
N
7
Wind Variable Wind from West

Today
High -- | Low -- °F
--% Chance of Precip.
Yesterday
High -- | Low -- °F
Precip. -- in
10:17 AM 5:33 PM
Waxing Crescent, 51% visible
Pressure 29.89 in
Visibility 10.0 miles
Clouds Overcast 1500 ft
Windchill 34 °F
Dew Point 35 °F
Humidity 86%
Rainfall 0.00 in
Snow Depth Not available.
UV 0 out of 12
Pollen Not available.
Air Quality Not available.
Flu Activity Not available.
METAR PAKF 282001Z AUTO 26006KT 10SM OVC015 04/02 A2961 RMK AO2 RAE1909 SLP121 P0000 T00390017 $

More Conditions Fewer Conditions

Pressure 29.89 in
Visibility 10.0 miles
Clouds Overcast 1500 ft
Windchill 34 °F
Dew Point 35 °F
Humidity 86%
Rainfall 0.00 in
Snow Depth Not available.
UV 0 out of 12
Pollen Not available.
Air Quality Not available.
Flu Activity Not available.
METAR PAKF 282001Z AUTO 26006KT 10SM OVC015 04/02 A2961 RMK AO2 RAE1909 SLP121 P0000 T00390017 $

More Conditions Fewer Conditions

10-Day Weather Forecast

Almanac

Astronomy

Dec. 28, 2014 Rise Set
Actual Time
Civil Twilight
Nautical Twilight
Astronomical Twilight
Moon
Length of Visible Light
Length of Day
Tomorrow will be .
, % of the Moon is Illuminated

Today's Extremes

State Highs State Lows

Community

WunderPhotos

Upload Photos

1,781,410 photos uploaded!

WunderBlogs® & News

Nearby

Air Quality

  Air Quality AQ Index Pollutant
Not available.

Snow Depth

Station Depth Elevation

Earthquake Activity

City Distance Mag. Time & Date
Minimum magnitude displayed is 2.5.

Coastal Water Temperatures

Place Temperature

Nearby Weather Stations